Time;durP1;ratioP1;P1;durP2;ratioP2;P2;SDS_P1;SDS_P2;PMS_P1;PMS_P2;Temp;Humidity;BMP_temperature;BMP_pressure;BME280_temperature;BME280_humidity;BME280_pressure;Samples;Min_cycle;Max_cycle;Signal;HPM_P1;HPM_P2
2021/01/10 00:01:04;;;;;;;4.22;2.40;;;17.30;39.60;;;;;;4988434;28;20055;-69
2021/01/10 00:03:30;;;;;;;8.52;2.42;;;17.30;39.40;;;;;;4993863;28;20053;-69
2021/01/10 00:05:57;;;;;;;14.30;2.95;;;17.10;40.10;;;;;;4991409;28;20468;-69
2021/01/10 00:08:23;;;;;;;5.57;3.00;;;17.20;39.80;;;;;;4990193;28;20034;-69
2021/01/10 00:10:49;;;;;;;8.32;2.28;;;17.20;40.50;;;;;;4995039;28;20365;-69
2021/01/10 00:13:16;;;;;;;11.13;3.35;;;17.10;40.50;;;;;;4998875;28;20109;-69
2021/01/10 00:15:43;;;;;;;11.20;3.17;;;17.20;40.50;;;;;;4993595;28;20453;-68
2021/01/10 00:18:09;;;;;;;7.20;2.25;;;17.00;41.40;;;;;;4992265;28;20022;-69
2021/01/10 00:20:38;;;;;;;8.65;2.40;;;16.90;41.90;;;;;;4988674;28;20041;-68
2021/01/10 00:23:04;;;;;;;6.15;1.52;;;17.00;42.40;;;;;;4994828;28;20030;-68
2021/01/10 00:25:31;;;;;;;10.85;2.47;;;16.80;42.40;;;;;;4976227;28;20042;-69
2021/01/10 00:27:57;;;;;;;8.10;2.15;;;16.70;42.60;;;;;;4987540;28;20022;-69
2021/01/10 00:30:24;;;;;;;7.07;2.28;;;16.70;42.70;;;;;;4993179;28;20107;-68
2021/01/10 00:32:52;;;;;;;7.43;2.45;;;16.60;42.70;;;;;;4990816;28;20102;-69
2021/01/10 00:35:20;;;;;;;8.10;3.22;;;16.60;43.10;;;;;;4975477;28;20023;-69
2021/01/10 00:37:51;;;;;;;4.13;2.22;;;16.80;44.10;;;;;;4982797;28;20162;-69
2021/01/10 00:40:19;;;;;;;9.38;2.63;;;16.80;44.30;;;;;;4983849;28;20019;-69
2021/01/10 00:42:46;;;;;;;4.05;2.60;;;16.80;44.30;;;;;;4980115;28;20361;-69
2021/01/10 00:45:14;;;;;;;10.60;2.88;;;16.80;44.70;;;;;;4975061;28;20448;-69
2021/01/10 00:47:41;;;;;;;6.43;2.47;;;16.80;44.90;;;;;;4991594;28;20034;-69
2021/01/10 00:50:08;;;;;;;5.75;2.60;;;16.80;45.10;;;;;;4980790;28;20598;-69
2021/01/10 00:52:35;;;;;;;7.45;2.97;;;16.70;45.30;;;;;;4981539;28;20351;-69
2021/01/10 00:55:06;;;;;;;7.18;2.83;;;16.80;45.40;;;;;;4994322;28;20034;-69
2021/01/10 00:57:32;;;;;;;6.78;2.70;;;16.70;45.20;;;;;;4994662;28;20349;-69
2021/01/10 00:59:59;;;;;;;7.03;2.75;;;16.50;45.50;;;;;;4992663;28;20022;-69
2021/01/10 01:02:25;;;;;;;7.95;3.67;;;16.40;45.90;;;;;;4989897;28;20057;-70
2021/01/10 01:04:52;;;;;;;9.18;2.95;;;16.30;46.30;;;;;;4989839;28;20104;-69
2021/01/10 01:07:18;;;;;;;7.55;3.47;;;16.20;46.50;;;;;;4986828;28;20029;-69
2021/01/10 01:09:45;;;;;;;9.25;3.40;;;16.10;46.50;;;;;;4998039;28;20032;-69
2021/01/10 01:12:11;;;;;;;7.05;3.67;;;15.90;46.60;;;;;;4992633;28;20031;-69
2021/01/10 01:14:37;;;;;;;13.48;3.53;;;15.80;46.60;;;;;;4994039;28;20109;-69
2021/01/10 01:17:07;;;;;;;7.38;3.28;;;15.60;47.00;;;;;;4992569;28;20396;-69
2021/01/10 01:19:34;;;;;;;6.00;3.40;;;15.50;47.50;;;;;;4987223;28;20060;-69
2021/01/10 01:22:00;;;;;;;7.80;3.00;;;15.50;47.50;;;;;;4990515;28;20027;-69
2021/01/10 01:24:27;;;;;;;7.88;3.72;;;15.40;47.40;;;;;;4987426;28;20100;-69
2021/01/10 01:26:54;;;;;;;6.45;3.10;;;15.30;47.40;;;;;;4993715;28;20034;-69
2021/01/10 01:29:20;;;;;;;7.80;3.92;;;15.20;47.70;;;;;;4988963;28;20022;-73
2021/01/10 01:31:46;;;;;;;8.00;3.22;;;15.10;48.00;;;;;;4997453;28;20517;-70
2021/01/10 01:34:13;;;;;;;9.98;6.65;;;14.90;48.30;;;;;;4991736;28;20031;-69
2021/01/10 01:36:39;;;;;;;10.57;4.70;;;14.70;48.50;;;;;;4994605;28;20030;-69
2021/01/10 01:39:06;;;;;;;8.23;4.05;;;14.50;48.70;;;;;;5001395;28;20033;-69
2021/01/10 01:41:37;;;;;;;10.90;4.45;;;14.40;49.10;;;;;;4991973;28;20026;-69
2021/01/10 01:44:04;;;;;;;9.65;3.38;;;14.40;48.80;;;;;;4992442;28;20086;-68
2021/01/10 01:46:35;;;;;;;11.18;4.65;;;14.30;48.90;;;;;;4993038;28;20026;-70
2021/01/10 01:49:09;;;;;;;8.18;3.47;;;14.40;48.50;;;;;;4990288;28;20456;-69
2021/01/10 01:51:38;;;;;;;8.52;4.07;;;14.30;48.40;;;;;;4991780;28;20018;-69
2021/01/10 01:54:06;;;;;;;10.93;3.08;;;14.20;48.80;;;;;;4978113;28;20106;-72
2021/01/10 01:56:33;;;;;;;6.65;3.22;;;14.00;48.60;;;;;;4993341;28;20125;-69
2021/01/10 01:59:10;;;;;;;7.47;3.08;;;14.00;48.90;;;;;;4990388;28;20037;-69
2021/01/10 02:01:38;;;;;;;6.85;3.30;;;13.90;48.70;;;;;;4991696;28;20031;-69
2021/01/10 02:04:16;;;;;;;8.73;2.83;;;13.80;48.90;;;;;;4995602;28;20354;-69
2021/01/10 02:07:07;;;;;;;9.75;3.78;;;13.90;48.80;;;;;;4987272;28;20034;-70
2021/01/10 02:09:43;;;;;;;10.30;3.88;;;13.90;48.90;;;;;;4984697;28;20098;-70
2021/01/10 02:12:12;;;;;;;8.45;3.45;;;13.70;48.70;;;;;;4988523;28;20031;-69
2021/01/10 02:14:50;;;;;;;8.27;3.55;;;13.50;49.00;;;;;;4993890;28;20022;-70
2021/01/10 02:17:18;;;;;;;8.73;3.45;;;13.50;49.00;;;;;;4996605;28;20406;-69
2021/01/10 02:20:10;;;;;;;11.80;3.88;;;13.40;49.30;;;;;;4992145;28;20052;-68
2021/01/10 02:22:47;;;;;;;10.32;4.63;;;13.20;49.90;;;;;;4996472;28;20038;-69
2021/01/10 02:25:14;;;;;;;7.30;3.42;;;13.20;49.60;;;;;;4996645;28;20019;-69
2021/01/10 02:27:42;;;;;;;6.25;3.50;;;13.20;49.90;;;;;;4995839;28;20468;-68
2021/01/10 02:30:10;;;;;;;3.95;3.50;;;13.10;49.90;;;;;;4996550;28;20104;-69
2021/01/10 02:32:40;;;;;;;6.95;3.33;;;13.10;49.80;;;;;;4990824;28;20471;-69
2021/01/10 02:35:08;;;;;;;5.22;3.40;;;13.20;50.30;;;;;;4978864;28;20482;-69
2021/01/10 02:38:18;;;;;;;6.00;3.00;;;13.20;50.10;;;;;;4983450;28;20459;-69
2021/01/10 02:41:25;;;;;;;8.32;3.35;;;13.20;50.50;;;;;;4994975;28;20061;-69
2021/01/10 02:44:21;;;;;;;6.55;3.65;;;13.10;50.10;;;;;;4998952;28;20146;-68
2021/01/10 02:46:52;;;;;;;6.03;3.03;;;13.10;50.40;;;;;;4996136;28;20047;-69
2021/01/10 02:49:20;;;;;;;11.57;3.33;;;13.00;50.80;;;;;;4987435;28;20026;-69
2021/01/10 02:51:47;;;;;;;6.43;3.47;;;13.00;50.60;;;;;;4986579;28;20034;-68
2021/01/10 02:54:15;;;;;;;9.75;4.50;;;13.10;50.80;;;;;;4988648;28;20030;-69
2021/01/10 02:57:20;;;;;;;11.52;5.03;;;13.00;50.80;;;;;;4980497;28;20117;-69
2021/01/10 02:59:50;;;;;;;6.80;3.38;;;12.90;50.60;;;;;;4976409;28;20027;-68
2021/01/10 03:02:18;;;;;;;17.38;3.55;;;12.70;51.20;;;;;;4979561;28;20030;-68
2021/01/10 03:04:45;;;;;;;10.15;4.30;;;12.80;52.00;;;;;;4991117;28;20064;-68
2021/01/10 03:07:11;;;;;;;5.82;3.60;;;12.70;51.60;;;;;;4994718;28;20030;-69
2021/01/10 03:09:38;;;;;;;11.98;3.65;;;12.60;51.80;;;;;;4993986;28;20041;-69
2021/01/10 03:12:15;;;;;;;4.25;3.42;;;12.50;51.90;;;;;;4992716;28;20026;-69
2021/01/10 03:14:43;;;;;;;7.35;3.67;;;12.40;51.70;;;;;;4992448;28;20065;-70
2021/01/10 03:17:32;;;;;;;7.88;4.22;;;12.40;52.50;;;;;;4992362;28;20058;-68
2021/01/10 03:19:59;;;;;;;5.85;2.97;;;12.40;52.50;;;;;;4993195;28;20031;-68
2021/01/10 03:22:27;;;;;;;8.65;3.42;;;12.40;52.50;;;;;;4990453;28;21318;-69
2021/01/10 03:24:55;;;;;;;11.55;5.10;;;12.20;52.00;;;;;;4988615;28;20712;-71
2021/01/10 03:27:21;;;;;;;4.95;3.45;;;12.20;52.50;;;;;;4990368;28;20045;-69
2021/01/10 03:29:48;;;;;;;11.75;3.35;;;12.10;52.20;;;;;;4982813;28;20034;-69
2021/01/10 03:32:15;;;;;;;6.53;3.40;;;12.20;52.30;;;;;;5002778;28;20038;-69
2021/01/10 03:34:42;;;;;;;6.72;5.03;;;12.20;52.10;;;;;;5003627;28;20026;-69
2021/01/10 03:37:08;;;;;;;6.85;4.00;;;12.10;52.50;;;;;;4985963;28;20026;-69
2021/01/10 03:39:35;;;;;;;5.32;3.72;;;12.10;52.60;;;;;;4984546;28;20487;-69
2021/01/10 03:42:01;;;;;;;4.95;3.22;;;12.10;52.10;;;;;;4993640;28;20508;-68
2021/01/10 03:44:28;;;;;;;5.30;3.60;;;11.90;53.00;;;;;;4990285;28;20085;-69
2021/01/10 03:46:54;;;;;;;4.28;3.78;;;11.70;53.60;;;;;;4986246;28;20046;-68
2021/01/10 03:49:21;;;;;;;9.50;4.07;;;11.60;53.30;;;;;;4991084;28;20479;-69
2021/01/10 03:51:48;;;;;;;10.70;5.10;;;11.60;52.70;;;;;;4993231;28;20030;-71
2021/01/10 03:54:14;;;;;;;6.55;4.53;;;11.80;53.20;;;;;;4987353;28;20352;-69
2021/01/10 03:56:40;;;;;;;10.15;5.15;;;12.00;53.00;;;;;;4990387;28;20037;-69
2021/01/10 03:59:07;;;;;;;7.72;4.10;;;11.90;52.30;;;;;;4983584;28;20141;-70
2021/01/10 04:01:33;;;;;;;7.65;3.70;;;11.70;52.80;;;;;;4994170;28;20383;-70
2021/01/10 04:04:00;;;;;;;6.95;4.10;;;11.70;53.10;;;;;;4995317;28;20461;-69
2021/01/10 04:06:27;;;;;;;8.82;4.03;;;11.60;53.10;;;;;;4991105;28;20035;-69
2021/01/10 04:08:54;;;;;;;8.35;4.55;;;11.50;53.10;;;;;;4979435;28;20356;-69
2021/01/10 04:11:21;;;;;;;8.93;3.95;;;11.50;53.40;;;;;;4979303;28;20049;-70
2021/01/10 04:13:48;;;;;;;9.07;5.68;;;11.40;53.00;;;;;;4984498;28;20457;-70
2021/01/10 04:16:15;;;;;;;6.97;4.05;;;11.40;54.10;;;;;;4986803;28;20027;-69
2021/01/10 04:18:42;;;;;;;9.93;5.25;;;11.50;53.50;;;;;;4988243;28;20027;-69
2021/01/10 04:21:08;;;;;;;6.95;4.28;;;11.30;53.30;;;;;;4973786;28;20033;-68
2021/01/10 04:23:35;;;;;;;9.57;4.13;;;11.00;53.50;;;;;;4988148;28;20018;-69
2021/01/10 04:26:01;;;;;;;8.20;4.95;;;11.00;54.20;;;;;;4991688;28;20112;-69
2021/01/10 04:28:28;;;;;;;9.80;3.90;;;11.00;54.40;;;;;;4996487;28;20069;-69
2021/01/10 04:30:55;;;;;;;9.57;4.03;;;11.20;54.00;;;;;;4985425;28;20353;-70
2021/01/10 04:33:23;;;;;;;4.53;3.63;;;11.30;53.50;;;;;;4994076;28;20172;-70
2021/01/10 04:35:50;;;;;;;7.63;4.13;;;11.20;53.10;;;;;;4981975;28;20031;-70
2021/01/10 04:38:17;;;;;;;8.50;3.47;;;11.30;53.20;;;;;;4983732;28;20027;-69
2021/01/10 04:40:44;;;;;;;8.32;3.42;;;11.10;54.00;;;;;;4979127;28;20026;-69
2021/01/10 04:43:11;;;;;;;8.63;3.70;;;11.30;53.30;;;;;;4979442;28;20027;-70
2021/01/10 04:45:38;;;;;;;6.55;4.05;;;11.20;53.30;;;;;;4989855;28;20093;-69
2021/01/10 04:48:06;;;;;;;5.50;3.45;;;11.20;53.30;;;;;;4980150;28;20038;-70
2021/01/10 04:50:34;;;;;;;9.07;4.13;;;11.00;53.90;;;;;;4995591;28;20026;-70
2021/01/10 04:53:03;;;;;;;8.95;3.40;;;10.90;53.80;;;;;;4992120;28;20046;-68
2021/01/10 04:55:32;;;;;;;6.35;4.28;;;10.90;53.80;;;;;;4987596;28;20089;-71
2021/01/10 04:58:07;;;;;;;6.95;3.42;;;10.90;53.90;;;;;;4992368;28;20464;-69
2021/01/10 05:00:35;;;;;;;5.68;3.72;;;10.80;54.30;;;;;;4991114;28;20037;-69
2021/01/10 05:03:16;;;;;;;7.85;4.45;;;10.70;54.40;;;;;;4996069;28;20523;-69
2021/01/10 05:05:42;;;;;;;4.78;3.13;;;10.50;55.00;;;;;;4995929;28;20030;-69
2021/01/10 05:08:12;;;;;;;4.40;3.92;;;10.50;55.10;;;;;;4991718;28;20367;-68
2021/01/10 05:10:40;;;;;;;11.13;3.90;;;10.50;55.30;;;;;;4985753;28;20042;-69
2021/01/10 05:13:07;;;;;;;5.65;4.25;;;10.60;54.70;;;;;;4992044;28;20105;-71
2021/01/10 05:15:36;;;;;;;5.30;4.10;;;10.50;54.20;;;;;;4991449;28;20025;-70
2021/01/10 05:18:03;;;;;;;9.45;3.95;;;10.50;54.30;;;;;;5001968;28;20038;-70
2021/01/10 05:20:31;;;;;;;9.65;4.70;;;10.40;54.50;;;;;;4990290;28;20019;-69
2021/01/10 05:22:59;;;;;;;11.25;4.38;;;10.30;55.00;;;;;;4989811;28;20030;-71
2021/01/10 05:25:29;;;;;;;8.95;4.38;;;10.20;55.20;;;;;;4996170;28;20022;-69
2021/01/10 05:27:57;;;;;;;15.02;6.82;;;10.20;55.20;;;;;;4989303;28;20423;-69
2021/01/10 05:30:32;;;;;;;9.88;4.53;;;10.20;54.90;;;;;;4998007;28;20085;-69
2021/01/10 05:33:04;;;;;;;11.98;4.00;;;10.30;54.60;;;;;;4997569;28;20036;-70
2021/01/10 05:35:55;;;;;;;7.47;4.47;;;10.30;54.50;;;;;;4990339;28;20365;-69
2021/01/10 05:38:32;;;;;;;9.10;4.28;;;10.20;54.30;;;;;;4993670;28;20030;-69
2021/01/10 05:41:00;;;;;;;6.40;3.95;;;10.10;54.70;;;;;;4997477;28;20326;-69
2021/01/10 05:43:28;;;;;;;7.20;4.25;;;10.10;54.90;;;;;;4994981;28;20027;-69
2021/01/10 05:45:55;;;;;;;8.25;4.20;;;10.10;55.20;;;;;;4992502;28;20022;-69
2021/01/10 05:48:22;;;;;;;12.02;5.15;;;10.10;55.80;;;;;;4989233;28;20364;-70
2021/01/10 05:50:50;;;;;;;10.90;5.60;;;10.00;55.80;;;;;;4988828;28;20030;-70
2021/01/10 05:53:22;;;;;;;8.52;3.80;;;9.90;56.80;;;;;;4993538;28;20022;-69
2021/01/10 05:56:00;;;;;;;12.63;5.35;;;9.80;55.80;;;;;;4991558;28;20100;-69
2021/01/10 05:58:28;;;;;;;8.60;3.92;;;9.80;56.60;;;;;;4997132;28;20101;-69
2021/01/10 06:00:55;;;;;;;7.85;4.75;;;9.70;57.80;;;;;;4997051;28;20019;-70
2021/01/10 06:03:23;;;;;;;8.70;4.40;;;9.70;57.40;;;;;;4992728;28;20437;-69
2021/01/10 06:06:00;;;;;;;12.15;5.70;;;9.70;56.40;;;;;;4988261;28;20030;-69
2021/01/10 06:08:28;;;;;;;12.80;5.40;;;9.70;56.90;;;;;;4987968;28;20030;-69
2021/01/10 06:11:14;;;;;;;16.33;6.10;;;9.60;56.40;;;;;;4988899;28;20084;-69
2021/01/10 06:14:07;;;;;;;10.43;5.53;;;9.70;57.40;;;;;;4988918;28;20109;-69
2021/01/10 06:16:37;;;;;;;13.18;4.80;;;9.60;57.70;;;;;;4985307;28;20047;-69
2021/01/10 06:19:12;;;;;;;13.95;4.82;;;9.50;58.60;;;;;;4989548;28;20038;-69
2021/01/10 06:21:39;;;;;;;15.88;6.00;;;9.60;58.50;;;;;;4987465;28;20038;-69
2021/01/10 06:24:06;;;;;;;12.95;4.88;;;9.60;58.50;;;;;;4990288;28;20034;-69
2021/01/10 06:26:34;;;;;;;9.63;4.47;;;9.70;59.50;;;;;;4984297;28;20168;-69
2021/01/10 06:29:03;;;;;;;14.90;4.82;;;9.70;60.70;;;;;;4984308;28;20084;-69
2021/01/10 06:31:34;;;;;;;13.55;5.43;;;9.80;60.80;;;;;;4986860;28;20030;-69
2021/01/10 06:34:05;;;;;;;14.75;5.07;;;9.60;59.20;;;;;;4989974;28;20372;-69
2021/01/10 06:36:35;;;;;;;12.80;5.15;;;9.70;59.00;;;;;;4988329;28;20456;-71
2021/01/10 06:39:07;;;;;;;11.65;4.97;;;9.80;60.00;;;;;;4993172;28;20029;-69
2021/01/10 06:41:55;;;;;;;9.90;4.80;;;9.90;60.80;;;;;;4989238;28;20030;-69
2021/01/10 06:44:22;;;;;;;19.05;5.18;;;9.90;60.40;;;;;;4994614;28;20023;-69
2021/01/10 06:46:53;;;;;;;12.95;5.20;;;9.90;60.10;;;;;;4986233;28;20042;-69
2021/01/10 06:49:20;;;;;;;16.13;4.70;;;10.00;59.70;;;;;;4988086;28;20023;-69
2021/01/10 06:51:49;;;;;;;8.63;3.90;;;10.20;60.10;;;;;;4992143;28;20022;-69
2021/01/10 06:54:16;;;;;;;11.50;3.90;;;10.00;61.40;;;;;;4989807;28;21425;-70
2021/01/10 06:56:49;;;;;;;12.07;4.60;;;9.90;61.20;;;;;;4987964;28;20334;-70
2021/01/10 06:59:29;;;;;;;12.52;4.97;;;9.90;60.50;;;;;;4988508;28;20030;-69
2021/01/10 07:01:56;;;;;;;9.32;5.65;;;9.80;60.60;;;;;;4990495;28;20049;-69
2021/01/10 07:04:33;;;;;;;19.70;6.60;;;9.80;60.10;;;;;;4990100;28;20141;-69
2021/01/10 07:06:59;;;;;;;9.20;4.13;;;9.80;60.00;;;;;;4991658;28;20109;-69
2021/01/10 07:09:26;;;;;;;13.60;6.00;;;9.80;60.00;;;;;;4994002;28;20527;-69
2021/01/10 07:11:52;;;;;;;20.27;4.70;;;9.80;59.50;;;;;;4978843;28;20051;-68
2021/01/10 07:14:22;;;;;;;11.10;4.85;;;10.10;59.60;;;;;;4980198;28;20538;-69
2021/01/10 07:16:49;;;;;;;8.07;4.60;;;9.90;59.50;;;;;;4976463;28;20058;-68
2021/01/10 07:19:18;;;;;;;10.27;4.32;;;9.80;58.90;;;;;;4994114;28;20029;-69
2021/01/10 07:21:46;;;;;;;7.75;4.35;;;9.80;59.40;;;;;;4982394;28;20106;-69
2021/01/10 07:24:21;;;;;;;9.82;4.13;;;9.80;60.70;;;;;;4989547;28;20061;-68
2021/01/10 07:26:59;;;;;;;11.45;4.85;;;9.90;59.30;;;;;;4995271;28;20061;-69
2021/01/10 07:29:32;;;;;;;11.52;4.13;;;10.00;60.20;;;;;;4986079;28;20029;-68
2021/01/10 07:32:03;;;;;;;8.25;4.00;;;10.10;60.30;;;;;;4994598;28;20030;-68
2021/01/10 07:34:31;;;;;;;12.32;4.72;;;9.90;60.50;;;;;;4990151;28;20073;-68
2021/01/10 07:37:00;;;;;;;15.23;4.40;;;9.90;59.70;;;;;;4982740;28;20035;-68
2021/01/10 07:39:29;;;;;;;11.05;5.00;;;9.90;60.30;;;;;;4993538;28;20030;-68
2021/01/10 07:42:13;;;;;;;12.05;4.80;;;10.00;60.20;;;;;;4992618;28;20531;-68
2021/01/10 07:44:47;;;;;;;7.13;4.38;;;9.90;59.50;;;;;;4991760;28;20444;-68
2021/01/10 07:47:14;;;;;;;8.27;4.03;;;9.90;59.80;;;;;;4987735;28;20045;-69
2021/01/10 07:49:57;;;;;;;12.80;4.00;;;10.10;60.00;;;;;;4993710;28;20472;-69
2021/01/10 07:52:42;;;;;;;11.95;3.85;;;10.10;60.00;;;;;;4987538;28;20026;-68
2021/01/10 07:55:18;;;;;;;10.02;4.25;;;10.10;59.50;;;;;;4983074;28;20019;-69
2021/01/10 07:57:51;;;;;;;4.80;3.42;;;10.00;59.40;;;;;;4986846;28;20041;-69
2021/01/10 08:00:30;;;;;;;9.25;3.90;;;10.00;59.60;;;;;;4994818;28;20033;-69
2021/01/10 08:03:06;;;;;;;7.53;4.05;;;9.90;59.50;;;;;;4982618;28;20121;-69
2021/01/10 08:05:40;;;;;;;7.45;3.75;;;10.00;59.60;;;;;;4988469;28;20114;-71
2021/01/10 08:08:13;;;;;;;9.88;3.97;;;10.00;59.30;;;;;;4988839;28;20027;-69
2021/01/10 08:10:49;;;;;;;;;;;10.00;59.20;;;;;;4990013;28;20089;-69
2021/01/10 08:13:30;;;;;;;4.72;3.40;;;9.90;59.50;;;;;;4985648;28;19945;-69
2021/01/10 08:15:58;;;;;;;12.65;4.10;;;10.10;59.20;;;;;;4977634;28;20033;-69
2021/01/10 08:18:30;;;;;;;4.45;3.20;;;10.10;58.70;;;;;;4990676;28;20031;-68
2021/01/10 08:20:56;;;;;;;6.72;3.60;;;9.90;59.10;;;;;;4984976;28;20057;-68
2021/01/10 08:23:23;;;;;;;9.95;3.85;;;9.90;59.00;;;;;;4984195;28;20035;-68
2021/01/10 08:26:03;;;;;;;8.57;3.80;;;9.70;59.00;;;;;;4990611;28;20110;-69
2021/01/10 08:28:33;;;;;;;8.02;4.57;;;9.70;59.10;;;;;;4989306;28;20030;-69
2021/01/10 08:31:08;;;;;;;9.15;3.70;;;9.60;59.20;;;;;;4975247;28;20033;-69
2021/01/10 08:33:35;;;;;;;8.32;4.03;;;9.60;59.70;;;;;;4978809;28;20026;-68
2021/01/10 08:36:14;;;;;;;7.30;4.07;;;9.70;60.00;;;;;;4994157;28;20105;-69
2021/01/10 08:38:47;;;;;;;10.20;4.03;;;9.90;59.20;;;;;;4987073;28;20040;-69
2021/01/10 08:41:21;;;;;;;7.75;4.32;;;9.80;58.80;;;;;;4984951;28;20038;-69
2021/01/10 08:43:54;;;;;;;4.85;3.08;;;9.60;59.00;;;;;;4997621;28;20093;-69
2021/01/10 08:46:21;;;;;;;9.15;3.58;;;9.50;58.90;;;;;;4981835;28;20084;-70
2021/01/10 08:48:47;;;;;;;4.90;2.95;;;9.60;59.00;;;;;;4988666;28;20030;-70
2021/01/10 08:51:33;;;;;;;5.15;3.35;;;9.60;58.60;;;;;;4988811;28;20031;-68
2021/01/10 08:54:09;;;;;;;7.32;3.75;;;9.40;58.90;;;;;;4989755;28;20055;-69
2021/01/10 08:56:36;;;;;;;6.45;3.53;;;9.30;59.50;;;;;;4988765;28;20034;-69
2021/01/10 08:59:04;;;;;;;3.78;3.17;;;9.30;59.40;;;;;;4992866;28;20089;-69
2021/01/10 09:01:30;;;;;;;6.82;3.67;;;9.30;59.00;;;;;;4991334;28;20367;-69
2021/01/10 09:04:00;;;;;;;7.38;3.47;;;9.20;59.40;;;;;;4993899;28;20031;-70
2021/01/10 09:07:20;;;;;;;11.55;4.05;;;9.10;59.50;;;;;;4982797;28;20110;-69
2021/01/10 09:10:00;;;;;;;7.95;3.30;;;9.10;59.60;;;;;;4996785;28;20471;-69
2021/01/10 09:12:38;;;;;;;6.15;3.78;;;9.20;59.40;;;;;;4977490;28;20459;-69
2021/01/10 09:15:19;;;;;;;8.13;3.47;;;9.20;59.10;;;;;;4981499;28;20026;-69
2021/01/10 09:17:57;;;;;;;5.78;3.17;;;9.10;59.20;;;;;;4994908;28;20125;-68
2021/01/10 09:20:33;;;;;;;5.47;3.42;;;9.10;58.90;;;;;;4995606;28;20030;-68
2021/01/10 09:23:06;;;;;;;4.90;2.85;;;9.10;58.60;;;;;;4992384;28;20034;-68
2021/01/10 09:25:33;;;;;;;9.23;3.47;;;9.10;58.60;;;;;;4985093;28;20113;-68
2021/01/10 09:28:05;;;;;;;8.68;3.50;;;9.20;58.70;;;;;;4991645;28;20030;-68
2021/01/10 09:30:32;;;;;;;5.72;3.78;;;9.30;58.30;;;;;;4998336;28;20456;-68
2021/01/10 09:32:59;;;;;;;3.78;2.78;;;9.40;58.00;;;;;;4995679;28;20053;-70
2021/01/10 09:35:25;;;;;;;6.10;3.13;;;9.40;57.90;;;;;;4991260;28;20101;-69
2021/01/10 09:37:52;;;;;;;7.43;3.45;;;9.40;58.00;;;;;;4991314;28;20030;-70
2021/01/10 09:40:18;;;;;;;9.18;3.33;;;9.40;57.90;;;;;;4992930;28;20032;-69
2021/01/10 09:42:50;;;;;;;12.60;4.65;;;9.30;57.90;;;;;;4996234;28;20057;-69
2021/01/10 09:45:32;;;;;;;7.63;3.42;;;9.20;58.40;;;;;;4989707;28;20027;-69
2021/01/10 09:47:59;;;;;;;7.10;2.75;;;9.30;58.00;;;;;;4986869;28;20034;-69
2021/01/10 09:50:25;;;;;;;4.45;2.97;;;9.30;57.80;;;;;;4986421;28;20034;-69
2021/01/10 09:52:53;;;;;;;6.18;2.78;;;9.20;58.30;;;;;;4993402;28;20026;-69
2021/01/10 09:55:30;;;;;;;4.25;3.10;;;9.10;57.60;;;;;;4983088;28;20472;-70
2021/01/10 09:57:56;;;;;;;14.15;3.50;;;9.00;58.30;;;;;;4994910;28;20037;-69
2021/01/10 10:00:23;;;;;;;3.90;2.97;;;8.90;58.40;;;;;;4989969;28;20101;-69
2021/01/10 10:02:49;;;;;;;4.63;2.55;;;8.80;58.60;;;;;;4991494;28;20026;-69
2021/01/10 10:05:22;;;;;;;7.88;3.08;;;8.70;59.30;;;;;;4993521;28;20033;-69
2021/01/10 10:07:49;;;;;;;;;;;8.70;59.30;;;;;;4991385;28;20034;-70
2021/01/10 10:10:22;;;;;;;3.65;2.80;;;8.70;59.00;;;;;;4993338;28;20327;-71
2021/01/10 10:12:53;;;;;;;8.18;2.92;;;8.50;59.40;;;;;;4983771;28;20027;-69
2021/01/10 10:15:20;;;;;;;5.70;3.50;;;8.50;59.50;;;;;;4995487;28;20098;-69
2021/01/10 10:17:47;;;;;;;8.40;3.38;;;8.50;59.30;;;;;;4993018;28;20031;-69
2021/01/10 10:20:13;;;;;;;8.18;3.30;;;8.40;59.10;;;;;;4995665;28;20034;-69
2021/01/10 10:22:40;;;;;;;10.00;2.75;;;8.80;58.60;;;;;;4994653;28;20036;-69
2021/01/10 10:25:09;;;;;;;5.43;3.25;;;8.80;58.30;;;;;;4995218;28;20080;-69
2021/01/10 10:27:53;;;;;;;11.48;3.42;;;8.70;58.40;;;;;;4994336;28;20031;-69
2021/01/10 10:30:19;;;;;;;8.02;3.13;;;8.60;58.50;;;;;;4986759;28;20046;-69
2021/01/10 10:32:46;;;;;;;6.97;3.90;;;8.60;58.30;;;;;;4985773;28;20118;-69
2021/01/10 10:35:12;;;;;;;6.07;2.85;;;8.40;58.60;;;;;;4985896;28;20030;-69
2021/01/10 10:37:39;;;;;;;5.97;3.00;;;8.40;58.90;;;;;;4982711;28;20045;-69
2021/01/10 10:40:05;;;;;;;6.47;3.60;;;8.30;59.00;;;;;;4994029;28;20061;-69
2021/01/10 10:42:32;;;;;;;4.13;2.70;;;8.50;59.10;;;;;;4986126;28;20026;-69
2021/01/10 10:44:58;;;;;;;6.18;3.28;;;8.60;58.70;;;;;;4994527;28;20053;-69
2021/01/10 10:47:24;;;;;;;6.70;3.00;;;8.60;58.40;;;;;;4988893;28;20023;-69
2021/01/10 10:49:51;;;;;;;9.70;3.17;;;8.70;58.30;;;;;;4993765;28;20018;-69
2021/01/10 10:52:17;;;;;;;5.95;2.80;;;8.80;58.30;;;;;;4992777;28;20053;-69
2021/01/10 10:54:44;;;;;;;5.53;3.45;;;8.90;58.30;;;;;;4991876;28;20065;-69
2021/01/10 10:57:10;;;;;;;8.77;3.70;;;8.90;58.10;;;;;;4994662;28;20034;-70
2021/01/10 10:59:40;;;;;;;7.72;3.30;;;8.80;58.40;;;;;;4992991;28;20030;-69
2021/01/10 11:02:09;;;;;;;5.85;3.58;;;8.60;58.40;;;;;;4989569;28;20034;-69
2021/01/10 11:04:42;;;;;;;8.73;3.65;;;8.50;59.00;;;;;;4994367;28;20035;-69
2021/01/10 11:07:09;;;;;;;8.48;3.25;;;8.40;59.40;;;;;;4987998;28;20070;-69
2021/01/10 11:09:36;;;;;;;5.13;3.28;;;8.40;59.50;;;;;;4989590;28;20023;-69
2021/01/10 11:12:03;;;;;;;5.07;2.85;;;8.30;59.40;;;;;;4982816;28;20041;-70
2021/01/10 11:14:29;;;;;;;4.78;3.88;;;8.40;59.90;;;;;;4987654;28;20034;-69
2021/01/10 11:16:56;;;;;;;4.82;2.95;;;8.40;59.30;;;;;;4989078;28;20019;-69
2021/01/10 11:19:22;;;;;;;3.58;3.25;;;8.40;59.40;;;;;;4994485;28;20037;-70
2021/01/10 11:21:51;;;;;;;5.63;2.67;;;8.30;59.60;;;;;;4992876;28;20496;-69
2021/01/10 11:24:18;;;;;;;5.43;2.67;;;8.10;59.90;;;;;;4994819;28;20531;-70
2021/01/10 11:26:46;;;;;;;4.43;2.80;;;8.10;60.00;;;;;;4985709;28;20117;-69
2021/01/10 11:29:14;;;;;;;4.38;2.65;;;8.10;59.90;;;;;;4980489;28;20037;-69
2021/01/10 11:31:41;;;;;;;7.93;3.17;;;8.10;60.30;;;;;;4985409;28;20417;-69
2021/01/10 11:34:10;;;;;;;6.78;2.97;;;8.20;60.00;;;;;;4991332;28;20046;-69
2021/01/10 11:36:40;;;;;;;3.42;2.65;;;8.20;59.80;;;;;;4991861;28;20060;-69
2021/01/10 11:39:07;;;;;;;7.05;3.58;;;8.20;60.70;;;;;;4992730;28;20041;-69
2021/01/10 11:41:33;;;;;;;2.95;2.75;;;8.10;60.80;;;;;;4986672;28;20033;-70
2021/01/10 11:44:00;;;;;;;3.15;2.85;;;8.10;60.70;;;;;;4976121;28;20034;-70
2021/01/10 11:46:26;;;;;;;4.20;3.10;;;8.10;60.50;;;;;;4986112;28;20117;-69
2021/01/10 11:48:52;;;;;;;9.90;4.00;;;8.10;60.10;;;;;;4986248;28;20030;-69
2021/01/10 11:51:19;;;;;;;2.92;2.60;;;8.20;59.90;;;;;;4991088;28;20037;-69
2021/01/10 11:53:46;;;;;;;3.13;2.75;;;8.10;60.30;;;;;;5003285;28;20050;-69
2021/01/10 11:56:13;;;;;;;4.47;2.85;;;8.10;60.50;;;;;;4984679;28;20177;-69
2021/01/10 11:58:40;;;;;;;6.90;3.03;;;8.00;60.50;;;;;;4986301;28;20419;-69
2021/01/10 12:01:07;;;;;;;3.42;2.90;;;8.00;60.70;;;;;;4992746;28;20110;-69
2021/01/10 12:03:34;;;;;;;4.30;3.47;;;8.00;60.60;;;;;;4987140;28;20023;-69
2021/01/10 12:06:01;;;;;;;14.38;3.50;;;7.90;60.70;;;;;;4993739;28;20039;-69
2021/01/10 12:08:29;;;;;;;4.10;3.05;;;7.90;60.70;;;;;;4982673;28;20076;-69
2021/01/10 12:10:56;;;;;;;6.10;3.20;;;7.90;61.00;;;;;;4986479;28;20022;-69
2021/01/10 12:13:23;;;;;;;6.65;2.97;;;7.90;61.50;;;;;;4979274;28;20105;-69
2021/01/10 12:15:49;;;;;;;6.43;3.33;;;7.90;60.60;;;;;;4993040;28;20023;-69
2021/01/10 12:18:16;;;;;;;5.18;4.00;;;7.90;61.00;;;;;;4992450;28;20053;-69
2021/01/10 12:20:42;;;;;;;3.30;2.72;;;7.90;60.20;;;;;;4981803;28;20029;-69
2021/01/10 12:23:09;;;;;;;5.93;3.63;;;7.80;61.20;;;;;;4988687;28;20042;-70
2021/01/10 12:25:36;;;;;;;10.43;4.30;;;7.80;61.00;;;;;;4983262;28;20018;-69
2021/01/10 12:28:03;;;;;;;10.57;4.82;;;8.10;61.00;;;;;;4988988;28;20030;-69
2021/01/10 12:30:30;;;;;;;7.47;3.22;;;8.10;60.40;;;;;;4994996;28;20022;-69
2021/01/10 12:32:58;;;;;;;7.65;3.30;;;8.00;60.60;;;;;;4989122;28;20057;-69
2021/01/10 12:35:24;;;;;;;11.18;3.10;;;7.90;60.90;;;;;;4985432;28;20019;-69
2021/01/10 12:37:51;;;;;;;6.72;3.08;;;7.90;60.90;;;;;;4980300;28;20045;-69
2021/01/10 12:40:18;;;;;;;11.48;3.78;;;8.00;60.90;;;;;;4976598;28;20070;-69
2021/01/10 12:42:47;;;;;;;3.03;2.83;;;8.00;60.70;;;;;;4983821;28;20023;-69
2021/01/10 12:45:14;;;;;;;7.30;3.08;;;7.80;61.90;;;;;;4985801;28;20027;-69
2021/01/10 12:47:45;;;;;;;4.35;2.63;;;7.90;61.30;;;;;;4990785;28;20079;-69
2021/01/10 12:50:16;;;;;;;5.63;2.58;;;7.90;62.10;;;;;;4990571;28;20045;-69
2021/01/10 12:52:44;;;;;;;6.32;3.08;;;8.00;61.40;;;;;;4991061;28;20109;-70
2021/01/10 12:55:11;;;;;;;7.63;3.15;;;8.30;61.50;;;;;;4992101;28;20088;-69
2021/01/10 12:57:38;;;;;;;5.60;3.05;;;8.30;61.30;;;;;;4978735;28;20342;-69
2021/01/10 13:00:10;;;;;;;4.68;2.95;;;8.10;62.90;;;;;;4995369;28;20026;-70
2021/01/10 13:02:37;;;;;;;8.38;3.10;;;8.30;61.60;;;;;;4989177;28;20034;-69
2021/01/10 13:05:06;;;;;;;5.68;2.60;;;8.40;61.80;;;;;;4994860;28;20486;-69